Time;durP1;ratioP1;P1;durP2;ratioP2;P2;SDS_P1;SDS_P2;PMS_P1;PMS_P2;Temp;Humidity;BMP_temperature;BMP_pressure;BME280_temperature;BME280_humidity;BME280_pressure;Samples;Min_cycle;Max_cycle;Signal;HPM_P1;HPM_P2
2022/05/14 00:02:19;;;;;;;15.57;5.60;;;;;;;13.01;71.66;101914.03;7391280;19;20030;-56
2022/05/14 00:04:48;;;;;;;19.65;5.80;;;;;;;12.78;72.23;101912.22;7393940;19;20019;-59
2022/05/14 00:07:17;;;;;;;11.80;5.63;;;;;;;12.88;72.26;101911.00;7391312;19;20010;-59
2022/05/14 00:09:46;;;;;;;16.10;5.88;;;;;;;12.89;72.63;101901.31;7392138;19;20320;-59
2022/05/14 00:14:59;;;;;;;20.17;7.13;;;;;;;12.62;72.71;101899.63;7393635;19;20089;-57
2022/05/14 00:17:28;;;;;;;14.38;6.25;;;;;;;12.93;72.26;101893.25;7392468;19;20014;-55
2022/05/14 00:19:56;;;;;;;12.57;5.93;;;;;;;12.88;72.42;101900.47;7389525;19;20454;-56
2022/05/14 00:22:25;;;;;;;16.65;6.70;;;;;;;12.63;73.18;101897.84;7391090;19;20022;-59
2022/05/14 00:24:54;;;;;;;22.48;7.00;;;;;;;12.66;73.82;101908.25;7392157;19;20584;-59
2022/05/14 00:27:24;;;;;;;11.98;5.88;;;;;;;12.67;73.31;101901.25;7392049;19;20015;-61
2022/05/14 00:29:53;;;;;;;13.75;6.55;;;;;;;12.64;74.13;101903.06;7389370;19;20022;-59
2022/05/14 00:32:24;;;;;;;15.10;6.30;;;;;;;12.57;73.87;101898.94;7390271;19;20018;-59
2022/05/14 00:34:53;;;;;;;20.02;7.03;;;;;;;12.50;73.84;101900.06;7390372;19;20081;-58
2022/05/14 00:37:22;;;;;;;14.85;6.05;;;;;;;12.52;73.87;101903.50;7390540;19;20017;-59
2022/05/14 00:39:51;;;;;;;12.38;5.57;;;;;;;12.62;73.11;101904.91;7391341;19;20013;-59
2022/05/14 00:42:23;;;;;;;16.90;5.78;;;;;;;12.52;73.47;101907.88;7392115;19;20018;-59
2022/05/14 00:44:52;;;;;;;17.77;5.90;;;;;;;12.52;73.65;101911.41;7394435;19;20101;-58
2022/05/14 00:47:24;;;;;;;56.58;13.43;;;;;;;12.42;74.06;101902.97;7389101;19;20014;-58
2022/05/14 00:49:53;;;;;;;19.93;6.23;;;;;;;12.48;73.36;101908.91;7391037;19;20010;-59
2022/05/14 00:52:23;;;;;;;14.75;6.00;;;;;;;12.21;74.38;101899.28;7388604;19;20030;-58
2022/05/14 00:55:00;;;;;;;9.57;5.50;;;;;;;12.47;73.07;101892.28;7389747;19;20018;-58
2022/05/14 00:57:33;;;;;;;13.70;5.18;;;;;;;12.37;72.90;101891.75;7392477;19;20014;-59
2022/05/14 01:00:08;;;;;;;12.57;5.05;;;;;;;12.61;71.48;101895.28;7388892;19;20414;-59
2022/05/14 01:02:40;;;;;;;11.60;4.93;;;;;;;12.49;71.72;101895.69;7388349;19;20011;-58
2022/05/14 01:05:12;;;;;;;12.95;5.07;;;;;;;12.35;72.12;101898.84;7390060;19;20018;-58
2022/05/14 01:07:42;;;;;;;18.15;4.85;;;;;;;12.45;71.20;101899.34;7392629;19;20029;-58
2022/05/14 01:10:16;;;;;;;11.77;4.45;;;;;;;12.64;70.48;101902.22;7390581;19;20029;-65
2022/05/14 01:12:53;;;;;;;11.75;4.80;;;;;;;12.54;70.25;101898.19;7389055;19;20039;-54
2022/05/14 01:15:26;;;;;;;12.27;4.18;;;;;;;12.36;70.61;101902.31;7391117;19;20022;-59
2022/05/14 01:17:58;;;;;;;;;;;;;;;12.50;70.01;101899.22;7390753;19;20014;-55
2022/05/14 01:20:26;;;;;;;12.25;3.67;;;;;;;12.63;69.93;101900.47;7388111;19;19925;-57
2022/05/14 01:23:04;;;;;;;10.32;4.20;;;;;;;12.43;70.37;101902.03;7388892;19;20111;-55
2022/05/14 01:28:23;;;;;;;8.77;3.80;;;;;;;12.60;70.23;101911.97;7388561;19;20030;-58
2022/05/14 01:30:57;;;;;;;13.75;4.35;;;;;;;12.67;69.42;101909.13;7398869;19;20018;-57
2022/05/14 01:33:27;;;;;;;14.20;4.40;;;;;;;12.52;69.63;101911.41;7402007;19;20056;-55
2022/05/14 01:35:56;;;;;;;11.82;4.00;;;;;;;12.58;69.26;101916.44;7403413;19;20017;-56
2022/05/14 01:38:26;;;;;;;9.52;4.72;;;;;;;12.63;69.28;101909.22;7403086;19;20022;-54
2022/05/14 01:40:55;;;;;;;14.05;4.90;;;;;;;12.49;70.09;101908.84;7403647;19;20045;-59
2022/05/14 01:43:26;;;;;;;16.75;5.07;;;;;;;12.62;70.10;101912.78;7403769;19;20014;-58
2022/05/14 01:45:55;;;;;;;12.13;4.95;;;;;;;12.62;70.14;101911.91;7402758;19;20017;-59
2022/05/14 01:48:24;;;;;;;9.57;4.43;;;;;;;12.59;69.81;101905.00;7402179;19;20015;-59
2022/05/14 01:50:55;;;;;;;10.68;5.00;;;;;;;12.58;69.90;101912.91;7401756;19;20018;-59
2022/05/14 01:53:24;;;;;;;12.32;5.28;;;;;;;12.54;70.08;101914.81;7401317;19;20017;-54
2022/05/14 01:55:53;;;;;;;14.23;5.38;;;;;;;12.25;70.73;101907.91;7402515;19;20010;-56
2022/05/14 02:01:13;;;;;;;14.73;5.45;;;;;;;12.43;70.82;101907.28;7401317;19;20458;-58
2022/05/14 02:03:44;;;;;;;11.48;5.05;;;;;;;12.22;71.38;101898.38;7403111;19;20011;-58
2022/05/14 02:06:14;;;;;;;10.52;5.35;;;;;;;12.26;71.41;101904.38;7402511;19;20014;-55
2022/05/14 02:08:43;;;;;;;12.95;5.72;;;;;;;12.16;72.35;101901.19;7402526;19;20048;-54
2022/05/14 02:11:13;;;;;;;12.32;5.22;;;;;;;12.32;71.71;101908.56;7402430;19;20022;-59
2022/05/14 02:13:44;;;;;;;12.43;5.72;;;;;;;12.28;71.80;101913.09;7400824;19;20030;-59
2022/05/14 02:16:16;;;;;;;12.05;5.20;;;;;;;12.24;72.08;101908.84;7401837;19;20022;-57
2022/05/14 02:18:46;;;;;;;13.82;5.50;;;;;;;12.09;73.02;101915.47;7403283;19;20387;-56
2022/05/14 02:21:18;;;;;;;12.90;6.47;;;;;;;12.06;72.93;101905.94;7400940;19;20077;-54
2022/05/14 02:23:47;;;;;;;12.70;6.03;;;;;;;12.06;72.87;101916.44;7401917;19;20039;-59
2022/05/14 02:26:17;;;;;;;12.40;5.70;;;;;;;12.08;72.46;101913.75;7401273;19;20014;-58
2022/05/14 02:28:46;;;;;;;13.90;5.72;;;;;;;11.91;73.33;101916.91;7401487;19;20015;-58
2022/05/14 02:31:18;;;;;;;12.20;5.32;;;;;;;11.96;72.89;101912.38;7402114;19;20018;-54
2022/05/14 02:33:47;;;;;;;11.48;6.05;;;;;;;11.98;72.97;101913.19;7402472;19;20018;-54
2022/05/14 02:36:16;;;;;;;17.65;6.65;;;;;;;11.99;72.66;101911.41;7402872;19;20022;-59
2022/05/14 02:38:45;;;;;;;14.82;6.80;;;;;;;11.94;73.27;101914.19;7402084;19;20026;-59
2022/05/14 02:41:15;;;;;;;15.98;5.80;;;;;;;11.79;73.89;101910.25;7395758;19;20034;-59
2022/05/14 02:43:45;;;;;;;15.15;5.53;;;;;;;11.88;73.21;101915.22;7393886;19;20022;-59
2022/05/14 02:46:14;;;;;;;17.33;6.20;;;;;;;11.88;73.43;101917.84;7395149;19;20026;-59
2022/05/14 02:48:46;;;;;;;15.80;6.03;;;;;;;11.84;73.88;101918.84;7393892;19;20362;-59
2022/05/14 02:51:16;;;;;;;14.13;5.83;;;;;;;11.82;73.53;101912.81;7393036;19;20339;-58
2022/05/14 02:53:45;;;;;;;11.15;5.65;;;;;;;11.70;74.04;101918.44;7393011;19;20359;-60
2022/05/14 02:56:14;;;;;;;10.93;5.68;;;;;;;11.72;74.18;101916.59;7393858;19;20332;-58
2022/05/14 03:01:24;;;;;;;14.50;6.13;;;;;;;11.61;74.78;101922.22;7393387;19;20131;-59
2022/05/14 03:03:56;;;;;;;16.67;6.07;;;;;;;11.50;75.49;101926.91;7393111;19;20003;-59
2022/05/14 03:06:25;;;;;;;12.85;5.50;;;;;;;11.66;74.77;101919.44;7393280;19;20109;-60
2022/05/14 03:08:54;;;;;;;12.60;5.78;;;;;;;11.55;74.94;101925.88;7393326;19;20466;-60
2022/05/14 03:11:23;;;;;;;14.30;5.68;;;;;;;11.56;75.24;101927.59;7391896;19;20019;-60
2022/05/14 03:13:53;;;;;;;12.13;5.35;;;;;;;11.60;74.59;101923.97;7392561;19;20070;-60
2022/05/14 03:16:22;;;;;;;15.10;5.50;;;;;;;11.36;75.65;101929.94;7393265;19;20018;-60
2022/05/14 03:18:51;;;;;;;11.70;5.63;;;;;;;11.39;75.32;101920.25;7392977;19;20010;-57
2022/05/14 03:21:22;;;;;;;12.80;5.25;;;;;;;11.55;74.35;101914.53;7393028;19;20022;-53
2022/05/14 03:23:51;;;;;;;14.73;5.82;;;;;;;11.28;75.54;101913.59;7396173;19;20075;-53
2022/05/14 03:26:20;;;;;;;13.20;5.57;;;;;;;11.31;75.54;101908.25;7394099;19;20018;-56
2022/05/14 03:28:49;;;;;;;11.05;5.53;;;;;;;11.14;75.84;101916.63;7394556;19;20037;-60
2022/05/14 03:31:18;;;;;;;10.50;4.93;;;;;;;11.25;75.31;101925.03;7392911;19;20014;-56
2022/05/14 03:33:48;;;;;;;20.05;5.93;;;;;;;11.26;75.28;101913.63;7394404;19;20014;-55
2022/05/14 03:36:17;;;;;;;12.40;5.85;;;;;;;11.05;76.13;101905.47;7395085;19;20470;-56
2022/05/14 03:38:48;;;;;;;13.68;6.10;;;;;;;11.15;75.93;101903.44;7393870;19;20022;-57
2022/05/14 03:41:18;;;;;;;12.27;5.73;;;;;;;11.33;75.08;101912.53;7392999;19;20801;-54
2022/05/14 03:43:47;;;;;;;11.45;5.38;;;;;;;11.25;75.35;101910.16;7392524;19;20010;-65
2022/05/14 03:46:18;;;;;;;13.57;5.80;;;;;;;11.33;75.15;101923.03;7396202;19;20026;-65
2022/05/14 03:48:47;;;;;;;12.07;5.78;;;;;;;11.15;75.49;101921.81;7391855;19;20025;-65
2022/05/14 03:51:17;;;;;;;13.52;5.88;;;;;;;11.17;75.57;101917.38;7391353;19;20014;-64
2022/05/14 03:53:49;;;;;;;15.80;5.63;;;;;;;11.22;75.50;101915.47;7388392;19;20106;-65
2022/05/14 03:56:18;;;;;;;11.20;5.60;;;;;;;11.19;75.24;101915.59;7392727;19;20226;-64
2022/05/14 03:58:47;;;;;;;10.85;5.75;;;;;;;11.07;75.79;101911.56;7390865;19;20078;-64
2022/05/14 04:01:17;;;;;;;13.55;6.15;;;;;;;11.12;75.94;101923.66;7391656;19;20111;-64
2022/05/14 04:03:47;;;;;;;13.50;5.68;;;;;;;11.22;75.96;101925.97;7391897;19;20039;-64
2022/05/14 04:06:16;;;;;;;15.20;6.25;;;;;;;11.15;75.86;101919.19;7393586;19;20408;-64
2022/05/14 04:08:45;;;;;;;17.55;6.07;;;;;;;11.09;76.41;101914.13;7392016;19;20018;-64
2022/05/14 04:11:16;;;;;;;14.05;5.95;;;;;;;11.22;75.28;101919.88;7392526;19;20450;-64
2022/05/14 04:13:46;;;;;;;13.43;6.20;;;;;;;11.03;76.30;101923.03;7389971;19;20014;-64
2022/05/14 04:16:15;;;;;;;15.18;6.20;;;;;;;11.32;75.38;101926.56;7391429;19;20013;-65
2022/05/14 04:18:44;;;;;;;16.77;6.63;;;;;;;11.10;75.62;101925.47;7391051;19;20026;-63
2022/05/14 04:21:13;;;;;;;11.50;5.88;;;;;;;11.25;75.10;101925.03;7390994;19;20498;-64
2022/05/14 04:23:43;;;;;;;9.95;5.95;;;;;;;11.14;75.13;101929.72;7390064;19;20018;-65
2022/05/14 04:26:12;;;;;;;16.33;6.72;;;;;;;10.94;76.59;101943.41;7392781;19;20018;-65
2022/05/14 04:28:44;;;;;;;15.80;6.78;;;;;;;10.99;76.37;101933.63;7392429;19;20015;-65
2022/05/14 04:31:13;;;;;;;15.40;6.23;;;;;;;10.98;77.07;101934.56;7391000;19;20018;-65
2022/05/14 04:33:42;;;;;;;14.85;6.45;;;;;;;10.95;76.93;101935.50;7390631;19;20044;-65
2022/05/14 04:36:12;;;;;;;13.98;6.65;;;;;;;10.86;77.25;101943.59;7390738;19;20018;-65
2022/05/14 04:38:41;;;;;;;12.07;6.45;;;;;;;10.94;76.94;101948.66;7390390;19;20006;-65
2022/05/14 04:41:10;;;;;;;12.38;6.55;;;;;;;10.98;77.26;101948.53;7391756;19;20022;-65
2022/05/14 04:43:39;;;;;;;13.57;7.32;;;;;;;11.00;77.40;101943.22;7390733;19;20042;-65
2022/05/14 04:46:11;;;;;;;16.63;7.22;;;;;;;11.10;77.32;101946.47;7391413;19;20122;-65
2022/05/14 04:48:41;;;;;;;12.60;7.07;;;;;;;11.05;77.79;101939.56;7390604;19;20018;-64
2022/05/14 04:51:10;;;;;;;12.30;6.80;;;;;;;11.00;78.18;101954.56;7390286;19;20023;-65
2022/05/14 04:53:39;;;;;;;14.43;6.95;;;;;;;11.06;77.22;101951.78;7389470;19;20015;-64
2022/05/14 04:56:08;;;;;;;11.68;6.75;;;;;;;11.29;76.60;101945.03;7388665;19;20483;-65
2022/05/14 04:58:37;;;;;;;14.13;7.53;;;;;;;11.16;76.94;101959.38;7390501;19;20018;-64
2022/05/14 05:01:07;;;;;;;15.57;7.10;;;;;;;11.20;76.58;101953.16;7389257;19;20041;-65
2022/05/14 05:03:36;;;;;;;15.38;7.43;;;;;;;10.97;77.63;101959.06;7388531;19;20043;-65
2022/05/14 05:06:06;;;;;;;16.58;6.95;;;;;;;11.08;77.62;101964.88;7389445;19;20011;-64
2022/05/14 05:08:37;;;;;;;14.27;7.65;;;;;;;11.06;77.86;101953.53;7389635;19;20015;-64
2022/05/14 05:11:06;;;;;;;14.90;7.30;;;;;;;11.15;78.22;101955.91;7390473;19;20474;-65
2022/05/14 05:13:35;;;;;;;14.57;7.30;;;;;;;11.20;77.66;101954.03;7389599;19;20520;-65
2022/05/14 05:16:04;;;;;;;13.95;7.20;;;;;;;11.02;78.68;101965.91;7388822;19;20018;-66
2022/05/14 05:18:33;;;;;;;17.20;8.02;;;;;;;11.39;78.14;101972.72;7390789;19;20015;-65
2022/05/14 05:21:06;;;;;;;13.30;7.70;;;;;;;11.41;77.59;101967.44;7390325;19;20062;-66
2022/05/14 05:23:35;;;;;;;;;;;;;;;11.18;78.25;101971.56;7389663;19;20018;-64
2022/05/14 05:26:03;;;;;;;18.25;8.50;;;;;;;11.19;78.36;101969.78;7390138;19;19922;-65
2022/05/14 05:28:32;;;;;;;15.32;8.20;;;;;;;11.16;78.39;101975.13;7389721;19;20018;-65
2022/05/14 05:31:01;;;;;;;15.10;7.55;;;;;;;11.31;78.48;101972.06;7389392;19;20011;-64
2022/05/14 05:33:30;;;;;;;15.93;7.95;;;;;;;11.46;77.54;101980.41;7388129;19;20010;-65
2022/05/14 05:35:59;;;;;;;20.58;8.40;;;;;;;11.38;78.17;101988.53;7388955;19;20021;-65
2022/05/14 05:38:30;;;;;;;20.30;8.93;;;;;;;11.49;77.91;101989.06;7390156;19;20011;-65
2022/05/14 05:40:59;;;;;;;20.00;8.95;;;;;;;11.17;78.68;101984.72;7389403;19;20043;-65
2022/05/14 05:43:28;;;;;;;16.00;7.93;;;;;;;11.59;77.80;101994.88;7388528;19;20014;-65
2022/05/14 05:45:57;;;;;;;16.45;8.98;;;;;;;11.48;78.04;101991.75;7390287;19;20053;-65
2022/05/14 05:48:26;;;;;;;19.42;9.60;;;;;;;11.38;78.39;101996.41;7390357;19;20011;-65
2022/05/14 05:50:55;;;;;;;15.00;9.05;;;;;;;11.47;78.26;102005.75;7389451;19;20050;-65
2022/05/14 05:56:46;;;;;;;19.70;8.85;;;;;;;11.59;78.02;102013.25;7388874;19;20371;-65
2022/05/14 05:58:57;;;;;;;16.42;9.50;;;;;;;11.55;77.71;102011.66;7389225;19;20026;-65
2022/05/14 06:01:26;;;;;;;18.02;9.10;;;;;;;11.40;78.65;102011.19;7389169;19;20439;-65
2022/05/14 06:03:55;;;;;;;15.70;9.23;;;;;;;11.54;78.24;102018.66;7387454;19;20019;-65
2022/05/14 06:06:24;;;;;;;20.05;9.70;;;;;;;11.41;79.27;102018.13;7389942;19;20010;-64
2022/05/14 06:08:53;;;;;;;23.60;10.00;;;;;;;11.73;78.41;102018.09;7389942;19;20678;-65
2022/05/14 06:11:25;;;;;;;21.75;9.73;;;;;;;11.67;78.87;102018.31;7388580;19;20015;-64
2022/05/14 06:13:54;;;;;;;25.20;11.23;;;;;;;11.62;79.56;102021.06;7389419;19;20035;-63
2022/05/14 06:16:23;;;;;;;19.20;11.05;;;;;;;11.81;78.88;102010.03;7387480;19;20018;-65
2022/05/14 06:18:52;;;;;;;20.80;10.63;;;;;;;11.98;78.71;102018.28;7398220;19;20018;-65
2022/05/14 06:21:21;;;;;;;15.82;9.60;;;;;;;12.02;78.71;102021.66;7398994;19;20019;-62
2022/05/14 06:23:50;;;;;;;21.27;10.57;;;;;;;12.15;78.65;102027.38;7396884;19;20042;-63
2022/05/14 06:26:19;;;;;;;22.88;10.80;;;;;;;11.86;79.83;102015.97;7399708;19;20015;-64
2022/05/14 06:28:50;;;;;;;20.50;11.32;;;;;;;11.87;80.43;102017.69;7396689;19;20022;-65
2022/05/14 06:31:19;;;;;;;22.52;11.07;;;;;;;11.92;80.50;102019.28;7395631;19;20014;-64
2022/05/14 06:33:50;;;;;;;21.48;11.68;;;;;;;12.08;79.96;102024.09;7393860;19;20011;-64
2022/05/14 06:36:20;;;;;;;21.50;11.45;;;;;;;12.42;79.04;102020.38;7394802;19;20483;-64
2022/05/14 06:38:49;;;;;;;25.10;11.40;;;;;;;12.54;78.56;102019.97;7395112;19;20022;-65
2022/05/14 06:41:18;;;;;;;21.95;11.60;;;;;;;12.61;78.16;102018.03;7394823;19;20018;-64
2022/05/14 06:43:47;;;;;;;23.65;11.77;;;;;;;12.62;78.74;102017.09;7393432;19;20022;-65
2022/05/14 06:46:19;;;;;;;25.75;12.27;;;;;;;12.52;79.14;102024.44;7395492;19;20014;-64
2022/05/14 06:48:48;;;;;;;25.98;12.70;;;;;;;12.44;79.93;102023.84;7397705;19;20470;-64
2022/05/14 06:51:21;;;;;;;26.38;12.13;;;;;;;12.58;79.66;102029.50;7400118;19;20011;-65
2022/05/14 06:53:52;;;;;;;27.20;11.98;;;;;;;12.82;78.68;102034.81;7394226;19;20015;-64
2022/05/14 06:56:22;;;;;;;23.95;12.30;;;;;;;12.96;78.40;102023.81;7394382;19;20332;-64
2022/05/14 06:58:53;;;;;;;25.92;13.23;;;;;;;12.92;78.57;102023.09;7394885;19;20344;-64
2022/05/14 07:01:24;;;;;;;22.98;12.85;;;;;;;12.86;78.92;102022.44;7394630;19;20019;-64
2022/05/14 07:06:41;;;;;;;23.40;12.82;;;;;;;12.95;79.01;102020.34;7394901;19;20014;-63
2022/05/14 07:09:14;;;;;;;26.65;13.82;;;;;;;13.11;78.26;102030.31;7395420;19;20019;-64
2022/05/14 07:11:44;;;;;;;;;;;;;;;13.24;78.69;102030.72;7397431;19;20039;-65
2022/05/14 07:14:14;;;;;;;29.25;13.82;;;;;;;13.40;78.00;102031.94;7394011;19;19918;-65
2022/05/14 07:16:46;;;;;;;25.00;13.65;;;;;;;13.32;78.06;102034.84;7394063;19;20014;-65
2022/05/14 07:19:16;;;;;;;24.83;13.68;;;;;;;13.57;77.79;102039.22;7395339;19;20026;-65
2022/05/14 07:21:46;;;;;;;25.67;13.90;;;;;;;13.77;76.79;102038.47;7395927;19;20014;-64
2022/05/14 07:24:17;;;;;;;27.95;14.38;;;;;;;13.40;78.23;102039.84;7393226;19;20475;-65
2022/05/14 07:26:49;;;;;;;25.75;13.82;;;;;;;13.52;78.23;102040.31;7395990;19;20353;-64
2022/05/14 07:29:20;;;;;;;28.52;14.75;;;;;;;13.42;78.41;102040.63;7393931;19;20107;-65
2022/05/14 07:31:53;;;;;;;29.92;14.23;;;;;;;13.56;78.26;102047.19;7395720;19;20025;-65
2022/05/14 07:34:22;;;;;;;27.75;14.43;;;;;;;13.79;77.30;102033.97;7395556;19;20025;-66
2022/05/14 07:36:59;;;;;;;27.02;14.75;;;;;;;13.87;76.73;102041.63;7392505;19;20034;-65
2022/05/14 07:39:32;;;;;;;26.38;13.73;;;;;;;13.98;76.67;102038.53;7393662;19;20014;-65
2022/05/14 07:42:02;;;;;;;;;;;;;;;14.17;75.82;102046.59;7394799;19;20011;-65
2022/05/14 07:44:36;;;;;;;27.63;14.30;;;;;;;14.04;76.80;102055.91;7393809;19;19922;-66
2022/05/14 07:47:11;;;;;;;27.60;13.80;;;;;;;14.40;75.82;102042.16;7393937;19;20022;-65
2022/05/14 07:49:40;;;;;;;25.83;13.13;;;;;;;14.63;75.13;102041.25;7392807;19;20018;-65
2022/05/14 07:52:10;;;;;;;24.52;13.48;;;;;;;14.32;75.61;102055.66;7396251;19;20003;-65
2022/05/14 07:54:39;;;;;;;25.20;13.43;;;;;;;14.75;74.80;102056.56;7398723;19;20010;-65
2022/05/14 07:57:08;;;;;;;23.63;12.82;;;;;;;14.83;74.40;102045.72;7391420;19;20052;-65
2022/05/14 07:59:38;;;;;;;30.63;14.07;;;;;;;14.66;73.96;102049.06;7394291;19;20014;-65
2022/05/14 08:02:21;;;;;;;28.85;13.23;;;;;;;14.88;73.07;102049.00;7392723;19;20022;-65
2022/05/14 08:04:50;;;;;;;24.90;12.70;;;;;;;14.93;72.87;102054.94;7393556;19;20352;-66
2022/05/14 08:07:19;;;;;;;27.30;11.90;;;;;;;14.94;71.83;102054.00;7392720;19;20022;-65
2022/05/14 08:09:48;;;;;;;26.90;11.73;;;;;;;15.07;71.85;102042.91;7392891;19;20011;-65
2022/05/14 08:12:18;;;;;;;25.17;11.43;;;;;;;15.38;70.45;102047.72;7391057;19;20430;-65
2022/05/14 08:14:47;;;;;;;27.48;10.65;;;;;;;15.30;70.49;102041.91;7390621;19;20022;-65
2022/05/14 08:17:18;;;;;;;27.10;9.80;;;;;;;15.34;70.95;102046.13;7390672;19;20018;-66
2022/05/14 08:19:48;;;;;;;28.70;11.00;;;;;;;15.85;69.04;102041.22;7392590;19;20715;-66
2022/05/14 08:24:58;;;;;;;24.55;9.77;;;;;;;15.69;69.31;102046.31;7393551;19;20011;-65
2022/05/14 08:27:27;;;;;;;24.83;10.43;;;;;;;15.77;69.41;102040.66;7392579;19;20022;-65
2022/05/14 08:29:55;;;;;;;22.50;10.35;;;;;;;16.12;68.73;102043.44;7390960;19;20021;-66
2022/05/14 08:32:27;;;;;;;24.55;10.13;;;;;;;15.94;68.14;102050.50;7391921;19;20025;-65
2022/05/14 08:34:56;;;;;;;28.20;9.77;;;;;;;15.96;68.04;102052.13;7392932;19;20348;-65
2022/05/14 08:37:26;;;;;;;21.85;9.32;;;;;;;15.91;67.15;102054.97;7393062;19;20085;-65
2022/05/14 08:39:55;;;;;;;20.50;9.25;;;;;;;16.03;67.63;102042.97;7389901;19;20048;-65
2022/05/14 08:42:24;;;;;;;24.10;8.60;;;;;;;16.50;65.68;102051.31;7391492;19;20018;-65
2022/05/14 08:44:53;;;;;;;26.25;8.73;;;;;;;16.36;65.56;102055.50;7392414;19;20325;-65
2022/05/14 08:47:34;;;;;;;17.45;7.75;;;;;;;16.17;65.06;102052.88;7391650;19;20022;-65
2022/05/14 08:50:05;;;;;;;20.15;7.72;;;;;;;16.54;64.61;102047.59;7391102;19;20018;-65
2022/05/14 08:52:37;;;;;;;21.38;8.10;;;;;;;16.21;62.67;102038.56;7390776;19;20030;-65
2022/05/14 08:55:10;;;;;;;21.05;7.57;;;;;;;16.32;62.48;102046.00;7392573;19;20014;-65
2022/05/14 08:57:42;;;;;;;;;;;;;;;16.64;60.14;102042.69;7393324;19;20021;-65
2022/05/14 09:00:12;;;;;;;14.40;5.53;;;;;;;17.04;58.69;102038.88;7392533;19;19919;-65
2022/05/14 09:02:47;;;;;;;16.33;5.35;;;;;;;16.72;56.89;102040.50;7391360;19;20021;-64
2022/05/14 09:05:20;;;;;;;17.98;5.00;;;;;;;17.10;54.49;102046.50;7392997;19;20018;-65
2022/05/14 09:07:50;;;;;;;;;;;;;;;17.20;53.72;102051.31;7392665;19;20018;-64
2022/05/14 09:10:25;;;;;;;16.60;4.65;;;;;;;16.82;53.95;102046.19;7391285;19;19927;-64
2022/05/14 09:12:58;;;;;;;18.08;4.45;;;;;;;17.01;54.10;102035.56;7391664;19;20061;-65
2022/05/14 09:15:29;;;;;;;16.80;4.60;;;;;;;17.16;53.22;102045.31;7391222;19;20125;-65
2022/05/14 09:18:12;;;;;;;14.15;4.65;;;;;;;16.97;54.73;102050.72;7390959;19;20057;-65
2022/05/14 09:20:46;;;;;;;15.88;5.15;;;;;;;17.28;55.27;102049.13;7389120;19;20315;-64
2022/05/14 09:23:27;;;;;;;21.35;5.90;;;;;;;17.79;54.78;102049.91;7389161;19;20479;-66
2022/05/14 09:25:56;;;;;;;16.75;5.60;;;;;;;17.89;54.31;102047.59;7390570;19;20360;-65
2022/05/14 09:28:35;;;;;;;17.58;5.82;;;;;;;17.35;56.23;102042.56;7390631;19;20017;-65
2022/05/14 09:31:04;;;;;;;16.58;6.00;;;;;;;17.38;54.82;102049.47;7390288;19;20018;-65
2022/05/14 09:33:42;;;;;;;16.33;6.10;;;;;;;17.66;53.61;102046.19;7391190;19;20025;-65
2022/05/14 09:36:18;;;;;;;18.35;6.00;;;;;;;17.73;55.50;102049.38;7391413;19;20455;-65
2022/05/14 09:38:50;;;;;;;15.52;5.28;;;;;;;17.31;54.47;102051.63;7390790;19;20027;-66
2022/05/14 09:41:24;;;;;;;18.15;6.00;;;;;;;17.30;54.82;102050.75;7389737;19;20104;-65
2022/05/14 09:43:55;;;;;;;17.55;5.90;;;;;;;17.18;56.52;102048.75;7390766;19;20011;-57
2022/05/14 09:46:28;;;;;;;16.75;5.57;;;;;;;17.71;53.65;102045.94;7393968;19;20022;-64
2022/05/14 09:49:07;;;;;;;19.38;6.10;;;;;;;17.74;54.17;102046.66;7390151;19;20011;-60
2022/05/14 09:51:38;;;;;;;19.30;7.28;;;;;;;17.44;55.20;102047.38;7394688;19;20019;-57
2022/05/14 09:54:23;;;;;;;18.58;5.95;;;;;;;17.68;54.52;102048.75;7396150;19;20010;-59
2022/05/14 09:57:15;;;;;;;19.27;6.57;;;;;;;17.44;53.49;102049.16;7395798;19;20360;-57
2022/05/14 10:00:14;;;;;;;24.48;6.93;;;;;;;17.33;54.73;102047.09;7397681;19;20090;-59
2022/05/14 10:03:05;;;;;;;17.40;6.57;;;;;;;17.94;54.15;102047.38;7396619;19;20027;-60
2022/05/14 10:05:50;;;;;;;19.95;6.88;;;;;;;18.31;53.67;102050.56;7397528;19;20085;-55
2022/05/14 10:08:30;;;;;;;17.15;5.78;;;;;;;18.79;52.08;102047.81;7397586;19;20034;-56
2022/05/14 10:11:09;;;;;;;19.10;6.45;;;;;;;18.74;51.94;102041.91;7400215;19;20468;-57
2022/05/14 10:13:48;;;;;;;16.20;6.00;;;;;;;18.84;51.23;102041.28;7396111;19;20014;-57
2022/05/14 10:16:25;;;;;;;16.92;6.00;;;;;;;18.76;51.64;102048.00;7397016;19;20018;-57
2022/05/14 10:19:07;;;;;;;17.65;5.85;;;;;;;19.34;50.09;102051.59;7397537;19;20010;-58
2022/05/14 10:21:47;;;;;;;14.25;5.55;;;;;;;18.85;51.08;102042.13;7396857;19;20372;-59
2022/05/14 10:27:32;;;;;;;17.13;5.63;;;;;;;18.75;51.31;102041.81;7397356;19;20023;-57
2022/05/14 10:30:15;;;;;;;15.20;5.53;;;;;;;18.42;49.71;102057.94;7395969;19;20025;-57
2022/05/14 10:32:47;;;;;;;14.10;5.47;;;;;;;18.56;49.95;102050.03;7395318;19;20014;-59
2022/05/14 10:35:22;;;;;;;15.88;5.60;;;;;;;18.71;50.13;102042.09;7396865;19;20022;-58
2022/05/14 10:37:55;;;;;;;16.75;5.60;;;;;;;19.11;48.65;102042.38;7393688;19;20014;-57
2022/05/14 10:40:32;;;;;;;17.30;6.10;;;;;;;18.34;49.97;102053.06;7396044;19;20341;-60
2022/05/14 10:43:17;;;;;;;16.33;5.35;;;;;;;19.57;47.97;102041.34;7395210;19;20014;-59
2022/05/14 10:45:48;;;;;;;16.63;6.05;;;;;;;18.76;49.68;102042.69;7396497;19;20021;-56
2022/05/14 10:48:27;;;;;;;17.85;6.25;;;;;;;19.53;49.34;102038.88;7395821;19;20332;-58
2022/05/14 10:50:56;;;;;;;17.08;5.72;;;;;;;19.57;48.09;102046.66;7394692;19;20021;-57
2022/05/14 10:53:28;;;;;;;19.30;5.38;;;;;;;19.46;47.78;102042.88;7394061;19;20011;-59
2022/05/14 10:56:04;;;;;;;20.52;5.80;;;;;;;19.06;48.06;102052.47;7395444;19;20502;-62
2022/05/14 10:58:45;;;;;;;15.25;5.47;;;;;;;19.27;47.68;102037.84;7394279;19;20015;-56
2022/05/14 11:01:32;;;;;;;15.68;5.80;;;;;;;19.81;47.56;102042.47;7393872;19;20049;-54
2022/05/14 11:04:09;;;;;;;84.13;10.65;;;;;;;20.31;46.27;102040.13;7391574;19;20141;-57
2022/05/14 11:06:51;;;;;;;16.83;5.50;;;;;;;19.82;46.03;102043.34;7394925;19;20018;-59
2022/05/14 11:09:25;;;;;;;16.95;6.15;;;;;;;20.63;45.40;102034.47;7394636;19;20127;-59
2022/05/14 11:11:59;;;;;;;18.65;5.40;;;;;;;21.13;44.53;102031.97;7395042;19;20018;-61
2022/05/14 11:14:39;;;;;;;15.52;5.65;;;;;;;20.41;46.09;102048.38;7393223;19;20029;-58
2022/05/14 11:17:20;;;;;;;15.90;5.95;;;;;;;20.02;47.44;102039.41;7393887;19;20014;-59
2022/05/14 11:19:49;;;;;;;15.77;5.40;;;;;;;21.13;43.89;102047.13;7394878;19;20538;-60
2022/05/14 11:22:25;;;;;;;14.05;5.50;;;;;;;20.71;44.09;102047.31;7395098;19;20022;-61
2022/05/14 11:24:57;;;;;;;15.77;5.35;;;;;;;21.36;44.38;102040.16;7395054;19;20014;-62
2022/05/14 11:27:29;;;;;;;16.20;5.68;;;;;;;20.46;45.81;102035.63;7394173;19;20022;-60
2022/05/14 11:30:03;;;;;;;13.82;4.95;;;;;;;20.83;45.33;102042.94;7394144;19;20491;-59
2022/05/14 11:32:44;;;;;;;14.18;6.05;;;;;;;20.55;45.26;102040.31;7394300;19;20025;-61
2022/05/14 11:35:14;;;;;;;16.55;6.10;;;;;;;20.65;44.34;102050.34;7393534;19;20018;-54
2022/05/14 11:37:45;;;;;;;18.52;6.18;;;;;;;19.94;45.94;102041.69;7393143;19;20392;-54
2022/05/14 11:40:29;;;;;;;18.20;5.67;;;;;;;20.28;46.18;102040.34;7394849;19;20030;-59
2022/05/14 11:43:22;;;;;;;19.88;6.15;;;;;;;20.91;44.74;102036.13;7393320;19;20410;-58
2022/05/14 11:45:57;;;;;;;19.08;6.38;;;;;;;21.13;43.82;102050.63;7395934;19;20015;-54
2022/05/14 11:48:32;;;;;;;14.25;6.15;;;;;;;20.59;44.68;102054.28;7396548;19;20022;-56
2022/05/14 11:51:09;;;;;;;15.43;5.80;;;;;;;20.91;45.10;102046.78;7395155;19;20743;-55
2022/05/14 11:53:42;;;;;;;17.23;5.75;;;;;;;21.39;43.24;102053.28;7393633;19;20581;-56
2022/05/14 11:56:21;;;;;;;11.18;4.65;;;;;;;21.59;43.31;102044.75;7393995;19;20022;-58
2022/05/14 11:58:57;;;;;;;16.77;5.25;;;;;;;21.77;42.33;102047.91;7394585;19;20006;-59
2022/05/14 12:01:31;;;;;;;15.27;5.63;;;;;;;21.00;42.68;102052.44;7393485;19;20011;-59